Time;durP1;ratioP1;P1;durP2;ratioP2;P2;SDS_P1;SDS_P2;PMS_P1;PMS_P2;Temp;Humidity;BMP_temperature;BMP_pressure;BME280_temperature;BME280_humidity;BME280_pressure;Samples;Min_cycle;Max_cycle;Signal;HPM_P1;HPM_P2
2022/08/27 00:02:17;;;;;;;2.47;1.10;;;20.90;91.50;;;;;;10439486;28;20032;-62
2022/08/27 00:07:18;;;;;;;2.28;1.60;;;20.90;91.50;;;;;;10454891;28;20027;-61
2022/08/27 00:12:19;;;;;;;2.15;1.10;;;20.80;91.50;;;;;;10453443;28;20499;-61
2022/08/27 00:17:20;;;;;;;3.92;1.90;;;20.80;91.40;;;;;;10454068;28;20045;-61
2022/08/27 00:22:21;;;;;;;3.15;1.52;;;20.80;91.40;;;;;;10451229;28;20033;-62
2022/08/27 00:27:21;;;;;;;2.53;1.38;;;20.80;91.40;;;;;;10452731;28;20471;-61
2022/08/27 00:32:22;;;;;;;4.45;1.58;;;20.70;91.30;;;;;;10452422;28;20551;-63
2022/08/27 00:37:23;;;;;;;2.85;1.33;;;20.80;91.40;;;;;;10449161;28;20398;-61
2022/08/27 00:42:24;;;;;;;2.53;1.20;;;20.70;91.30;;;;;;10451428;28;20034;-62
2022/08/27 00:47:27;;;;;;;3.78;1.60;;;20.70;91.30;;;;;;10450775;28;20025;-62
2022/08/27 00:52:53;;;;;;;2.95;1.50;;;20.70;91.30;;;;;;10454846;28;20374;-61
2022/08/27 00:58:06;;;;;;;4.43;1.67;;;20.60;91.20;;;;;;10451880;28;20033;-62
2022/08/27 01:03:07;;;;;;;2.75;1.75;;;20.60;91.20;;;;;;10449084;28;20111;-62
2022/08/27 01:08:13;;;;;;;2.83;1.63;;;20.60;91.20;;;;;;10449520;28;20021;-62
2022/08/27 01:13:17;;;;;;;3.03;2.25;;;20.60;91.20;;;;;;10449695;28;20127;-61
2022/08/27 01:18:18;;;;;;;4.05;2.08;;;20.60;91.20;;;;;;10455373;28;20024;-62
2022/08/27 01:23:23;;;;;;;1.98;1.40;;;20.60;91.10;;;;;;10454551;28;20037;-62
2022/08/27 01:28:24;;;;;;;3.97;1.55;;;20.50;91.10;;;;;;10448112;28;20095;-62
2022/08/27 01:33:25;;;;;;;3.58;1.60;;;20.50;91.10;;;;;;10457020;28;20036;-62
2022/08/27 01:38:26;;;;;;;4.25;1.80;;;20.50;91.10;;;;;;10461985;28;20037;-62
2022/08/27 01:43:28;;;;;;;3.20;1.60;;;20.50;91.10;;;;;;10453801;28;20029;-61
2022/08/27 01:48:28;;;;;;;3.28;1.65;;;20.50;91.00;;;;;;10443496;28;20052;-62
2022/08/27 01:53:29;;;;;;;2.28;1.63;;;20.40;91.00;;;;;;10446345;28;20133;-62
2022/08/27 01:58:32;;;;;;;2.15;1.50;;;20.40;91.00;;;;;;10454834;28;20396;-62
2022/08/27 02:03:35;;;;;;;3.00;1.55;;;20.40;90.90;;;;;;10450211;28;20056;-62
2022/08/27 02:08:36;;;;;;;4.03;1.90;;;20.40;90.90;;;;;;10450897;28;20048;-62
2022/08/27 02:13:38;;;;;;;2.63;1.63;;;20.40;90.90;;;;;;10456673;28;20037;-62
2022/08/27 02:18:38;;;;;;;3.60;1.83;;;20.30;90.90;;;;;;10448445;28;20033;-62
2022/08/27 02:23:40;;;;;;;2.72;1.55;;;20.30;90.90;;;;;;10450504;28;20029;-61
2022/08/27 02:28:41;;;;;;;1.80;1.40;;;20.30;90.80;;;;;;10453599;28;20056;-62
2022/08/27 02:33:42;;;;;;;3.33;1.90;;;20.30;90.80;;;;;;10442743;28;20040;-62
2022/08/27 02:38:43;;;;;;;2.85;1.50;;;20.30;90.80;;;;;;10437798;28;20071;-62
2022/08/27 02:43:44;;;;;;;2.85;1.73;;;20.20;90.70;;;;;;10414039;28;20120;-63
2022/08/27 02:48:45;;;;;;;3.58;1.23;;;20.20;90.70;;;;;;10402564;28;20026;-62
2022/08/27 02:53:45;;;;;;;3.60;2.20;;;20.20;90.70;;;;;;10413796;28;20389;-60
2022/08/27 02:58:46;;;;;;;4.15;1.48;;;20.20;90.70;;;;;;10400609;28;20032;-63
2022/08/27 03:03:47;;;;;;;3.85;1.85;;;20.20;90.70;;;;;;10414528;28;20050;-62
2022/08/27 03:08:48;;;;;;;2.78;1.65;;;20.20;90.70;;;;;;10415434;28;20029;-61
2022/08/27 03:13:49;;;;;;;5.03;1.58;;;20.10;90.70;;;;;;10406288;28;20033;-62
2022/08/27 03:18:50;;;;;;;2.15;1.63;;;20.10;90.70;;;;;;10408121;28;20513;-62
2022/08/27 03:23:51;;;;;;;3.92;2.00;;;20.10;90.70;;;;;;10412105;28;20144;-61
2022/08/27 03:28:52;;;;;;;5.90;2.13;;;20.10;90.60;;;;;;10403712;28;20542;-62
2022/08/27 03:33:55;;;;;;;3.63;1.60;;;20.10;90.60;;;;;;10409950;28;20106;-61
2022/08/27 03:38:57;;;;;;;2.25;1.58;;;20.00;90.80;;;;;;10405076;28;20259;-62
2022/08/27 03:43:58;;;;;;;2.88;1.50;;;20.00;90.50;;;;;;10393388;28;20045;-61
2022/08/27 03:48:58;;;;;;;4.38;1.80;;;20.00;90.50;;;;;;10394324;28;20048;-62
2022/08/27 03:53:59;;;;;;;2.55;1.55;;;20.00;90.50;;;;;;10398139;28;20394;-62
2022/08/27 03:59:00;;;;;;;3.95;1.77;;;19.90;90.50;;;;;;10404458;28;20025;-62
2022/08/27 04:04:01;;;;;;;3.13;1.75;;;19.90;90.40;;;;;;10406342;28;20116;-62
2022/08/27 04:09:02;;;;;;;2.55;1.80;;;19.90;90.50;;;;;;10405396;28;20026;-62
2022/08/27 04:14:05;;;;;;;2.58;1.60;;;19.90;90.40;;;;;;10406336;28;20118;-60
2022/08/27 04:19:06;;;;;;;3.63;1.85;;;19.90;90.40;;;;;;10406467;28;20031;-62
2022/08/27 04:24:09;;;;;;;3.13;1.77;;;19.90;90.40;;;;;;10402566;28;20402;-62
2022/08/27 04:29:10;;;;;;;3.35;1.52;;;19.90;90.40;;;;;;10405198;28;20520;-61
2022/08/27 04:34:11;;;;;;;2.97;1.88;;;19.80;90.40;;;;;;10403780;28;20037;-62
2022/08/27 04:39:13;;;;;;;1.80;1.40;;;19.80;90.30;;;;;;10424670;28;20041;-62
2022/08/27 04:44:14;;;;;;;2.60;1.50;;;19.80;90.30;;;;;;10446713;28;20466;-62
2022/08/27 04:49:15;;;;;;;4.20;2.88;;;19.80;90.30;;;;;;10442390;28;20052;-62
2022/08/27 04:54:16;;;;;;;2.60;1.65;;;19.80;90.30;;;;;;10442930;28;20042;-61
2022/08/27 04:59:17;;;;;;;3.20;1.90;;;19.80;90.30;;;;;;10420427;28;20025;-62
2022/08/27 05:04:18;;;;;;;3.72;2.00;;;19.80;90.30;;;;;;10440417;28;20397;-61
2022/08/27 05:09:19;;;;;;;2.47;1.50;;;19.80;90.30;;;;;;10371096;28;20052;-61
2022/08/27 05:14:21;;;;;;;3.58;1.63;;;19.70;90.20;;;;;;10349076;28;20114;-62
2022/08/27 05:19:22;;;;;;;2.67;1.52;;;19.70;90.20;;;;;;10358602;28;20298;-62
2022/08/27 05:24:23;;;;;;;2.83;1.70;;;19.70;90.20;;;;;;10360266;28;20548;-62
2022/08/27 05:29:24;;;;;;;3.60;1.52;;;19.70;90.20;;;;;;10355895;28;20059;-62
2022/08/27 05:34:25;;;;;;;3.15;1.90;;;19.70;90.20;;;;;;10356777;28;20156;-61
2022/08/27 05:39:25;;;;;;;4.47;2.20;;;19.70;90.10;;;;;;10356119;28;20080;-62
2022/08/27 05:44:27;;;;;;;2.92;1.70;;;19.70;90.10;;;;;;10358917;28;20039;-61
2022/08/27 05:49:27;;;;;;;2.60;1.50;;;19.70;90.10;;;;;;10350770;28;20626;-61
2022/08/27 05:54:28;;;;;;;1.90;1.40;;;19.70;90.10;;;;;;10362607;28;20041;-61
2022/08/27 06:04:48;;;;;;;3.67;2.17;;;19.70;90.00;;;;;;10355162;28;20278;-61
2022/08/27 06:09:49;;;;;;;3.22;1.52;;;19.70;90.00;;;;;;10359364;28;20110;-61
2022/08/27 06:14:50;;;;;;;3.65;1.45;;;19.70;90.00;;;;;;10358878;28;20304;-61
2022/08/27 06:19:51;;;;;;;2.28;1.42;;;19.70;90.00;;;;;;10358048;28;20207;-61
2022/08/27 06:24:51;;;;;;;2.08;1.30;;;19.70;90.00;;;;;;10356840;28;20451;-62
2022/08/27 06:29:52;;;;;;;4.22;2.17;;;19.70;89.90;;;;;;10342671;28;20359;-60
2022/08/27 06:34:53;;;;;;;4.13;1.60;;;19.70;89.90;;;;;;10352820;28;20411;-62
2022/08/27 06:39:54;;;;;;;2.15;1.30;;;19.80;90.00;;;;;;10356750;28;20500;-61
2022/08/27 06:44:55;;;;;;;3.88;1.60;;;19.80;89.90;;;;;;10359951;28;20546;-62
2022/08/27 06:49:56;;;;;;;2.10;1.45;;;19.80;89.80;;;;;;10357242;28;20032;-62
2022/08/27 06:54:57;;;;;;;3.28;1.38;;;19.80;89.80;;;;;;10355054;28;20115;-62
2022/08/27 06:59:58;;;;;;;2.65;1.40;;;19.80;89.70;;;;;;10356975;28;21003;-62
2022/08/27 07:04:59;;;;;;;2.83;1.38;;;19.80;89.70;;;;;;10353656;28;20033;-61
2022/08/27 07:09:59;;;;;;;1.55;1.30;;;19.90;89.80;;;;;;10354581;28;20033;-62
2022/08/27 07:15:00;;;;;;;2.28;1.20;;;19.90;89.60;;;;;;10340927;28;20305;-62
2022/08/27 07:20:02;;;;;;;1.70;1.10;;;19.90;89.60;;;;;;10352373;28;20132;-62
2022/08/27 07:25:03;;;;;;;2.78;1.10;;;20.00;89.50;;;;;;10357026;28;20052;-63
2022/08/27 07:30:06;;;;;;;2.45;1.17;;;20.00;89.50;;;;;;10349873;28;20037;-62
2022/08/27 07:35:08;;;;;;;3.95;1.20;;;20.00;89.40;;;;;;10348561;28;20044;-62
2022/08/27 07:40:12;;;;;;;1.55;1.08;;;20.10;89.50;;;;;;10349085;28;20548;-62
2022/08/27 07:45:13;;;;;;;2.72;1.30;;;20.00;89.50;;;;;;10349345;28;20033;-62
2022/08/27 07:50:14;;;;;;;2.00;1.13;;;20.00;89.50;;;;;;10354301;28;20136;-61
2022/08/27 07:55:16;;;;;;;1.90;1.10;;;20.10;89.60;;;;;;10350591;28;20535;-61
2022/08/27 08:00:16;;;;;;;2.88;1.17;;;20.00;89.50;;;;;;10349872;28;20394;-61
2022/08/27 08:05:17;;;;;;;1.65;1.08;;;20.10;89.60;;;;;;10346701;28;20408;-61
2022/08/27 08:10:22;;;;;;;3.85;1.38;;;20.10;89.50;;;;;;10346506;28;20111;-61
2022/08/27 08:15:22;;;;;;;1.80;1.00;;;20.20;89.50;;;;;;10327004;28;20032;-62
2022/08/27 08:20:23;;;;;;;1.67;1.20;;;20.20;89.40;;;;;;10350164;28;20071;-61
2022/08/27 08:25:24;;;;;;;3.85;1.10;;;20.20;89.30;;;;;;10350287;28;20037;-61
2022/08/27 08:30:26;;;;;;;2.33;1.00;;;20.30;89.20;;;;;;10349929;28;20033;-61
2022/08/27 08:35:26;;;;;;;2.08;1.00;;;20.40;89.00;;;;;;10346197;28;20059;-62
2022/08/27 08:40:31;;;;;;;1.67;1.02;;;20.50;88.80;;;;;;10359456;28;20060;-62
2022/08/27 08:45:34;;;;;;;2.72;1.38;;;20.50;88.70;;;;;;10338351;28;20378;-62
2022/08/27 08:50:48;;;;;;;2.35;1.00;;;20.60;88.70;;;;;;10360282;28;20484;-62
2022/08/27 08:56:00;;;;;;;2.42;1.10;;;20.70;88.70;;;;;;10374294;28;20031;-61
2022/08/27 09:01:03;;;;;;;1.52;0.93;;;20.60;88.50;;;;;;10364770;28;20021;-62
2022/08/27 09:06:06;;;;;;;3.10;1.08;;;20.70;88.70;;;;;;10370733;28;20032;-61
2022/08/27 09:11:38;;;;;;;2.15;1.20;;;20.60;88.60;;;;;;10374817;28;20057;-62
2022/08/27 09:16:39;;;;;;;1.88;0.90;;;20.60;88.70;;;;;;10366299;28;20033;-61
2022/08/27 09:21:43;;;;;;;2.40;1.30;;;20.60;88.90;;;;;;10365279;28;20316;-62
2022/08/27 09:26:44;;;;;;;1.48;0.90;;;20.60;89.00;;;;;;10359209;28;20172;-62
2022/08/27 09:31:54;;;;;;;1.38;1.05;;;20.60;89.00;;;;;;10358766;28;20491;-61
2022/08/27 09:37:16;;;;;;;1.60;1.05;;;20.60;89.00;;;;;;10352363;28;20040;-62
2022/08/27 09:42:51;;;;;;;2.22;0.98;;;20.60;88.90;;;;;;10367788;28;20043;-62
2022/08/27 09:48:08;;;;;;;1.30;0.90;;;20.60;88.90;;;;;;10357894;28;20129;-62
2022/08/27 09:53:24;;;;;;;2.45;0.90;;;20.60;88.90;;;;;;10356183;28;20487;-63
2022/08/27 09:59:06;;;;;;;1.52;0.90;;;20.70;88.90;;;;;;10361179;28;20249;-61
2022/08/27 10:04:11;;;;;;;1.27;0.90;;;20.70;88.90;;;;;;10357879;28;20045;-62
2022/08/27 10:09:37;;;;;;;1.52;0.85;;;20.70;88.90;;;;;;10363613;28;20173;-61
2022/08/27 10:14:44;;;;;;;3.35;1.23;;;20.70;88.80;;;;;;10350186;28;20068;-61
2022/08/27 10:19:48;;;;;;;4.07;0.93;;;20.80;88.80;;;;;;10367162;28;20103;-62
2022/08/27 10:25:05;;;;;;;2.53;0.98;;;20.80;88.80;;;;;;10367488;28;20499;-63
2022/08/27 10:30:24;;;;;;;2.35;0.90;;;20.80;88.80;;;;;;10350232;28;20060;-62
2022/08/27 10:35:59;;;;;;;2.28;1.13;;;20.80;88.70;;;;;;10365766;28;20461;-61
2022/08/27 10:41:09;;;;;;;2.85;1.08;;;20.80;88.70;;;;;;10326294;28;20041;-62
2022/08/27 10:46:34;;;;;;;1.23;0.85;;;20.90;88.70;;;;;;10312591;28;20030;-61
2022/08/27 10:51:44;;;;;;;1.67;0.75;;;20.90;88.60;;;;;;10314241;28;20786;-61
2022/08/27 10:57:15;;;;;;;1.85;0.95;;;21.00;88.60;;;;;;10314042;28;20115;-67
2022/08/27 11:02:26;;;;;;;4.57;1.20;;;21.00;88.50;;;;;;10310674;28;20580;-62
2022/08/27 11:07:34;;;;;;;4.78;0.80;;;21.00;88.50;;;;;;10320349;28;20639;-63
2022/08/27 11:12:43;;;;;;;1.17;0.77;;;21.10;88.40;;;;;;10313086;28;20049;-63
2022/08/27 11:17:50;;;;;;;3.40;1.08;;;21.10;88.40;;;;;;10307535;28;20777;-63
2022/08/27 11:22:58;;;;;;;5.05;1.17;;;21.10;88.40;;;;;;10314777;28;20522;-61
2022/08/27 11:27:59;;;;;;;;;;;21.00;87.80;;;;;;10315960;28;20379;-62
2022/08/27 11:33:26;;;;;;;4.45;0.95;;;20.80;86.90;;;;;;10319485;28;19929;-62
2022/08/27 11:38:59;;;;;;;5.03;0.90;;;20.70;86.90;;;;;;10320987;28;20052;-62
2022/08/27 11:43:59;;;;;;;2.03;0.93;;;20.70;86.60;;;;;;10337235;28;20041;-62
2022/08/27 11:49:02;;;;;;;3.53;0.88;;;20.80;86.80;;;;;;10328061;28;20041;-61
2022/08/27 11:54:06;;;;;;;6.35;1.50;;;20.90;86.30;;;;;;10339480;28;20057;-62
2022/08/27 11:59:26;;;;;;;4.57;1.35;;;21.10;85.80;;;;;;10324576;28;20269;-61
2022/08/27 12:04:29;;;;;;;2.60;0.93;;;21.20;85.80;;;;;;10334620;28;20140;-62
2022/08/27 12:09:59;;;;;;;2.88;0.80;;;21.20;85.90;;;;;;10336762;28;20439;-61
2022/08/27 12:15:42;;;;;;;2.42;0.82;;;21.20;85.20;;;;;;10339460;28;20584;-61
2022/08/27 12:20:52;;;;;;;6.97;1.33;;;21.30;85.40;;;;;;10239894;28;20208;-62
2022/08/27 12:26:25;;;;;;;4.82;0.85;;;21.30;84.70;;;;;;10334066;28;20033;-61
2022/08/27 12:31:26;;;;;;;2.80;0.70;;;21.30;84.60;;;;;;10336933;28;20056;-61
2022/08/27 12:36:27;;;;;;;2.88;0.80;;;21.30;84.60;;;;;;10335897;28;20475;-61
2022/08/27 12:41:38;;;;;;;4.47;0.95;;;21.20;84.00;;;;;;10321374;28;20178;-62
2022/08/27 12:47:00;;;;;;;4.15;1.05;;;21.30;84.00;;;;;;10321052;28;20037;-60
2022/08/27 12:52:13;;;;;;;5.35;0.82;;;21.40;84.10;;;;;;10316245;28;20033;-62
2022/08/27 12:57:41;;;;;;;3.50;0.73;;;21.50;83.50;;;;;;10318481;28;20033;-62
2022/08/27 13:02:44;;;;;;;4.63;0.90;;;21.60;83.20;;;;;;10316872;28;20353;-62
2022/08/27 13:07:46;;;;;;;2.42;0.52;;;21.70;83.20;;;;;;10320766;28;20494;-62
2022/08/27 13:12:59;;;;;;;2.13;0.75;;;22.00;81.40;;;;;;10320972;28;20068;-62
2022/08/27 13:18:02;;;;;;;5.97;1.02;;;21.90;81.20;;;;;;10315315;28;20131;-62
2022/08/27 13:23:03;;;;;;;3.35;0.77;;;21.60;81.60;;;;;;10318009;28;20021;-61
2022/08/27 13:28:17;;;;;;;1.55;0.70;;;21.60;82.10;;;;;;10316338;28;20534;-62
2022/08/27 13:33:26;;;;;;;2.15;0.77;;;22.10;80.50;;;;;;10316969;28;20579;-61
2022/08/27 13:38:30;;;;;;;3.50;0.80;;;22.50;79.90;;;;;;10325381;28;20395;-60
2022/08/27 13:43:46;;;;;;;6.00;0.98;;;22.60;79.70;;;;;;10374752;28;20134;-61
2022/08/27 13:48:49;;;;;;;4.70;1.00;;;22.60;77.90;;;;;;10340211;28;20039;-61
2022/08/27 13:59:19;;;;;;;5.60;0.93;;;22.10;79.40;;;;;;10352490;28;20017;-62
2022/08/27 14:04:23;;;;;;;2.13;0.50;;;22.20;78.80;;;;;;10349364;28;20037;-61
2022/08/27 14:09:27;;;;;;;1.92;0.60;;;22.20;79.30;;;;;;10370867;28;20024;-61
2022/08/27 14:14:30;;;;;;;3.30;0.90;;;22.20;79.40;;;;;;10370483;28;20036;-61
2022/08/27 14:19:32;;;;;;;3.42;0.80;;;22.00;79.60;;;;;;10365684;28;20463;-62
2022/08/27 14:24:33;;;;;;;2.45;0.50;;;22.00;79.90;;;;;;10365039;28;20040;-62
2022/08/27 14:29:34;;;;;;;1.48;0.65;;;22.10;79.90;;;;;;10379123;28;20028;-62
2022/08/27 14:34:36;;;;;;;2.35;0.88;;;22.20;80.10;;;;;;10375876;28;20045;-62
2022/08/27 14:39:37;;;;;;;4.03;0.70;;;22.30;80.00;;;;;;10353885;28;20065;-63
2022/08/27 14:44:38;;;;;;;3.10;0.77;;;22.60;79.80;;;;;;10323408;28;20375;-63
2022/08/27 14:49:43;;;;;;;1.65;0.70;;;22.70;79.70;;;;;;10320671;28;20395;-63
2022/08/27 14:54:44;;;;;;;2.17;0.60;;;22.60;79.70;;;;;;10321746;28;20343;-61
2022/08/27 14:59:45;;;;;;;2.45;0.77;;;22.60;80.20;;;;;;10315459;28;20029;-62
2022/08/27 15:04:46;;;;;;;2.25;0.60;;;22.50;80.40;;;;;;10315752;28;20361;-65
2022/08/27 15:09:47;;;;;;;1.98;0.88;;;22.70;80.40;;;;;;10317667;28;20044;-61
2022/08/27 15:14:48;;;;;;;2.42;0.95;;;22.80;80.30;;;;;;10313878;28;20084;-60
2022/08/27 15:19:49;;;;;;;3.65;0.60;;;23.00;80.20;;;;;;10318552;28;20033;-61
2022/08/27 15:24:55;;;;;;;2.45;0.65;;;23.10;79.80;;;;;;10309251;28;20788;-61
2022/08/27 15:29:56;;;;;;;1.10;0.50;;;23.30;79.70;;;;;;10319802;28;20032;-61
2022/08/27 15:34:59;;;;;;;3.63;0.75;;;23.30;79.80;;;;;;10310502;28;20092;-61
2022/08/27 15:40:00;;;;;;;2.17;0.70;;;23.20;80.20;;;;;;10344452;28;20044;-62
2022/08/27 15:45:03;;;;;;;1.63;0.80;;;23.10;80.60;;;;;;10355375;28;20055;-61
2022/08/27 15:50:05;;;;;;;1.30;0.82;;;23.00;80.90;;;;;;10355770;28;20013;-60
2022/08/27 15:55:19;;;;;;;2.55;0.70;;;23.00;81.10;;;;;;10366037;28;20041;-61
2022/08/27 16:00:21;;;;;;;1.88;0.73;;;22.90;81.10;;;;;;10360939;28;20033;-60
2022/08/27 16:05:22;;;;;;;1.38;0.90;;;22.90;81.40;;;;;;10359919;28;20437;-60
2022/08/27 16:10:23;;;;;;;1.00;0.50;;;22.90;81.70;;;;;;10355473;28;20315;-61
2022/08/27 16:15:24;;;;;;;2.65;0.80;;;22.90;81.60;;;;;;10362637;28;20037;-61
2022/08/27 16:20:25;;;;;;;2.20;0.63;;;22.90;82.40;;;;;;10358065;28;20017;-61
2022/08/27 16:25:26;;;;;;;1.17;0.50;;;22.90;81.90;;;;;;10350922;28;20028;-61
2022/08/27 16:30:27;;;;;;;2.22;0.85;;;22.80;82.10;;;;;;10358060;28;20057;-61
2022/08/27 16:35:28;;;;;;;1.80;0.70;;;22.80;82.30;;;;;;10363193;28;20095;-61
2022/08/27 16:40:32;;;;;;;1.33;0.63;;;22.70;82.40;;;;;;10338871;28;20053;-61
2022/08/27 16:45:33;;;;;;;5.60;1.00;;;22.70;82.50;;;;;;10366399;28;20470;-61
2022/08/27 16:50:35;;;;;;;2.40;0.90;;;22.60;82.50;;;;;;10356514;28;20337;-61
2022/08/27 16:55:37;;;;;;;2.38;1.05;;;22.60;82.70;;;;;;10350874;28;20037;-61
2022/08/27 17:00:38;;;;;;;1.70;0.70;;;22.60;82.90;;;;;;10361967;28;20744;-62
2022/08/27 17:05:38;;;;;;;1.13;0.70;;;22.50;82.90;;;;;;10374200;28;20374;-60
2022/08/27 17:10:45;;;;;;;1.05;0.70;;;22.50;83.00;;;;;;10362809;28;20048;-61
2022/08/27 17:15:47;;;;;;;1.90;1.10;;;22.40;83.10;;;;;;10366957;28;20040;-60
2022/08/27 17:20:50;;;;;;;2.17;0.65;;;22.40;83.20;;;;;;10361382;28;20031;-61
2022/08/27 17:25:51;;;;;;;2.88;0.90;;;22.40;83.20;;;;;;10369104;28;20460;-62
2022/08/27 17:30:52;;;;;;;1.90;0.90;;;22.30;83.30;;;;;;10360101;28;20032;-61
2022/08/27 17:35:53;;;;;;;2.08;0.82;;;22.30;83.30;;;;;;10368552;28;20850;-61
2022/08/27 17:40:54;;;;;;;2.80;0.90;;;22.30;83.30;;;;;;10329452;28;20472;-61
2022/08/27 17:45:55;;;;;;;0.90;0.80;;;22.20;83.20;;;;;;10316909;28;20033;-62
2022/08/27 17:50:56;;;;;;;2.30;0.88;;;22.20;83.40;;;;;;10317814;28;20022;-61
2022/08/27 17:55:56;;;;;;;1.50;0.90;;;22.10;83.50;;;;;;10310669;28;20032;-61
2022/08/27 18:00:58;;;;;;;2.17;0.90;;;22.10;83.60;;;;;;10313440;28;20029;-61
2022/08/27 18:05:58;;;;;;;1.83;0.95;;;22.10;83.70;;;;;;10314088;28;20501;-60
2022/08/27 18:10:59;;;;;;;2.20;1.10;;;22.00;83.70;;;;;;10311044;28;20068;-61
2022/08/27 18:16:00;;;;;;;4.30;1.30;;;22.00;83.70;;;;;;10313882;28;20366;-61
2022/08/27 18:21:01;;;;;;;1.67;1.08;;;22.00;83.70;;;;;;10313922;28;20026;-61
2022/08/27 18:26:01;;;;;;;2.70;1.13;;;21.90;83.70;;;;;;10314981;28;20152;-62
2022/08/27 18:31:03;;;;;;;1.88;1.20;;;21.90;83.70;;;;;;10314073;28;20449;-61
2022/08/27 18:36:05;;;;;;;3.00;1.20;;;21.80;83.60;;;;;;10315871;28;20029;-61
2022/08/27 18:41:06;;;;;;;3.55;1.40;;;21.80;83.60;;;;;;10336089;28;20052;-61
2022/08/27 18:46:07;;;;;;;2.25;1.23;;;21.80;83.60;;;;;;10350553;28;20327;-62
2022/08/27 18:51:10;;;;;;;2.67;1.40;;;21.70;83.50;;;;;;10351140;28;20033;-62
2022/08/27 18:56:14;;;;;;;1.88;1.30;;;21.70;83.50;;;;;;10348681;28;20139;-62
2022/08/27 19:01:19;;;;;;;2.97;1.60;;;21.70;83.40;;;;;;10346538;28;20075;-61
2022/08/27 19:06:20;;;;;;;3.85;1.50;;;21.60;83.40;;;;;;10399078;28;20032;-64
2022/08/27 19:11:21;;;;;;;4.50;1.65;;;21.60;83.50;;;;;;10438429;28;20025;-64
2022/08/27 19:16:28;;;;;;;3.50;1.77;;;21.60;83.40;;;;;;10436197;28;20308;-62
2022/08/27 19:21:29;;;;;;;3.35;1.83;;;21.50;83.20;;;;;;10436906;28;20021;-61
2022/08/27 19:26:30;;;;;;;3.15;1.58;;;21.50;83.30;;;;;;10437335;28;20021;-61
2022/08/27 19:31:33;;;;;;;3.45;1.75;;;21.40;83.30;;;;;;10435405;28;20059;-61
2022/08/27 19:36:38;;;;;;;3.88;1.67;;;21.40;83.40;;;;;;10439535;28;20041;-61
2022/08/27 19:41:39;;;;;;;4.30;2.15;;;21.40;83.40;;;;;;10435820;28;20040;-62
2022/08/27 19:46:40;;;;;;;5.63;1.92;;;21.30;83.40;;;;;;10437472;28;20389;-62
2022/08/27 19:51:41;;;;;;;4.47;2.08;;;21.30;83.50;;;;;;10438230;28;20438;-61
2022/08/27 19:56:42;;;;;;;4.78;2.35;;;21.30;83.40;;;;;;10435373;28;20337;-61
2022/08/27 20:01:43;;;;;;;4.63;2.10;;;21.30;83.50;;;;;;10417514;28;20095;-62
2022/08/27 20:06:44;;;;;;;4.65;2.22;;;21.20;83.40;;;;;;10435802;28;20024;-61
2022/08/27 20:11:44;;;;;;;5.80;2.70;;;21.20;83.40;;;;;;10414761;28;20419;-61
2022/08/27 20:16:46;;;;;;;3.97;1.98;;;21.20;83.40;;;;;;10436960;28;20021;-61
2022/08/27 20:21:46;;;;;;;3.10;2.00;;;21.10;83.40;;;;;;10437709;28;20044;-62
2022/08/27 20:26:47;;;;;;;6.38;2.35;;;21.10;83.40;;;;;;10435304;28;20025;-61
2022/08/27 20:31:48;;;;;;;6.05;2.25;;;21.00;83.30;;;;;;10436349;28;20035;-61
2022/08/27 20:36:50;;;;;;;4.35;2.10;;;21.00;83.30;;;;;;10439884;28;20036;-61
2022/08/27 20:41:51;;;;;;;6.78;2.58;;;21.00;83.30;;;;;;10420791;28;20709;-62
2022/08/27 20:46:56;;;;;;;7.63;2.45;;;21.00;83.30;;;;;;10427773;28;20076;-61
2022/08/27 20:51:57;;;;;;;6.13;2.45;;;20.90;83.20;;;;;;10422980;28;20033;-61
2022/08/27 20:56:58;;;;;;;4.55;2.30;;;20.90;83.20;;;;;;10426318;28;20560;-62
2022/08/27 21:02:09;;;;;;;7.18;2.42;;;20.90;83.30;;;;;;10428492;28;20031;-65
2022/08/27 21:07:09;;;;;;;6.75;2.60;;;20.80;83.10;;;;;;10429808;28;20033;-62
2022/08/27 21:12:10;;;;;;;4.30;2.28;;;20.80;83.20;;;;;;10425259;28;20031;-61
2022/08/27 21:17:11;;;;;;;5.30;2.70;;;20.80;83.20;;;;;;10420083;28;20025;-62
2022/08/27 21:22:12;;;;;;;4.03;2.33;;;20.70;83.10;;;;;;10435394;28;20034;-62
2022/08/27 21:27:13;;;;;;;5.82;2.88;;;20.70;83.10;;;;;;10430280;28;20037;-61
2022/08/27 21:32:15;;;;;;;7.95;2.90;;;20.70;83.20;;;;;;10416623;28;20403;-61
2022/08/27 21:37:17;;;;;;;6.22;2.47;;;20.70;83.10;;;;;;10423013;28;20386;-61
2022/08/27 21:42:18;;;;;;;4.43;2.67;;;20.60;83.10;;;;;;10448822;28;20394;-61
2022/08/27 21:47:18;;;;;;;6.93;2.75;;;20.60;83.10;;;;;;10443535;28;20332;-61
2022/08/27 21:52:19;;;;;;;4.72;2.53;;;20.60;83.10;;;;;;10451491;28;20033;-61
2022/08/27 21:57:20;;;;;;;5.07;2.42;;;20.50;83.10;;;;;;10445889;28;20032;-61
2022/08/27 22:02:21;;;;;;;6.75;2.63;;;20.50;83.20;;;;;;10445116;28;20033;-62
2022/08/27 22:07:23;;;;;;;5.82;2.28;;;20.50;83.20;;;;;;10453940;28;20020;-61
2022/08/27 22:12:24;;;;;;;5.32;2.28;;;20.40;83.10;;;;;;10442300;28;20072;-61
2022/08/27 22:17:25;;;;;;;7.65;2.63;;;20.40;83.10;;;;;;10446544;28;20021;-62
2022/08/27 22:22:25;;;;;;;5.05;2.33;;;20.40;83.10;;;;;;10443178;28;20033;-61
2022/08/27 22:27:26;;;;;;;6.32;2.30;;;20.40;83.20;;;;;;10449040;28;20075;-62
2022/08/27 22:32:27;;;;;;;4.28;2.33;;;20.40;83.10;;;;;;10449875;28;21475;-62
2022/08/27 22:37:29;;;;;;;4.75;2.50;;;20.40;83.10;;;;;;10445990;28;20259;-61
2022/08/27 22:42:29;;;;;;;6.03;2.40;;;20.30;83.10;;;;;;10446570;28;20028;-61
2022/08/27 22:47:30;;;;;;;5.45;2.40;;;20.30;83.10;;;;;;10443023;28;20349;-61
2022/08/27 22:52:31;;;;;;;3.88;2.65;;;20.30;83.20;;;;;;10441292;28;20041;-61
2022/08/27 22:57:31;;;;;;;4.55;1.90;;;20.30;83.10;;;;;;10441472;28;20025;-61
2022/08/27 23:02:32;;;;;;;3.72;2.17;;;20.20;83.10;;;;;;10453476;28;20120;-61
2022/08/27 23:07:33;;;;;;;5.68;2.40;;;20.20;83.20;;;;;;10450323;28;20040;-61
2022/08/27 23:12:34;;;;;;;4.68;2.60;;;20.20;83.20;;;;;;10439633;28;20060;-61
2022/08/27 23:17:36;;;;;;;3.58;1.85;;;20.10;83.20;;;;;;10443621;28;20029;-61
2022/08/27 23:22:37;;;;;;;5.35;2.10;;;20.10;83.20;;;;;;10442147;28;20028;-61
2022/08/27 23:27:38;;;;;;;5.80;2.35;;;20.10;83.20;;;;;;10444226;28;20104;-61
2022/08/27 23:32:39;;;;;;;5.85;2.10;;;20.10;83.20;;;;;;10449693;28;20129;-62
2022/08/27 23:37:40;;;;;;;4.80;2.55;;;20.00;83.20;;;;;;10445839;28;20067;-61
2022/08/27 23:42:42;;;;;;;5.82;2.40;;;20.00;83.30;;;;;;10447031;28;20048;-62
2022/08/27 23:47:43;;;;;;;2.90;2.00;;;20.00;83.30;;;;;;10445585;28;20060;-63
2022/08/27 23:52:43;;;;;;;4.97;2.20;;;20.00;83.40;;;;;;10444648;28;20049;-62
2022/08/27 23:57:44;;;;;;;4.88;2.20;;;19.90;83.40;;;;;;10443447;28;20035;-62
